Aérodrome :
LOGIN :

S'inscrire | Disclaimer

   EN    FR    IT 

 










Légende :    VFR   VFR Marginal   IFR   IFR Intensif   IFR Très Intensif
Visi : 
Plafond : 
>= 8 km
>= 3000ft
5 à 8 km
1000 à 3000 ft
1500m à 5 km
500 à 1000 ft
800 à 1500m
200 à 500 ft
< 800m
< 200 ft
Symboles :   Orages  Brouillard  Fortes neiges  Fortes précipitations  Vent > 20 kt
SIGMETs :   Divers  Orages  Givrage  Turbulence  Onde Orograph.  Cendres Volcan.







- Altitude de l'aérodrome : 287 ft
- Voir les cartes d'approche


LFRL - Lanveoc Poulmic

DERNIER METAR :
  • 140800Z AUTO 28019KT 9999 FEW032/// SCT072/// BKN098/// ///CB 08/04 Q1004 TEMPO 3000 TSRAGS BECMG 30022G32KT

METARs EXPIRÉS :
  • 140730Z AUTO 28017G31KT 9999 SCT022 BKN029 BKN037 08/06 Q1004 TEMPO 3000 TSRAGS BKN020CB
  • 140700Z AUTO 29025G38KT 6000 -RA FEW012/// BKN031/// BKN058/// ///CB 07/05 Q1005 TEMPO 4000 SHRA
  • 140630Z AUTO 28019KT 9999 FEW015/// SCT025/// BKN050/// ///CB 07/05 Q1005 TEMPO 4000 SHRA BECMG 30022G32KT
  • 140600Z AUTO 27017KT 9999 FEW024/// BKN041/// BKN050/// ///CB 08/05 Q1004 TEMPO 4000 SHRA BECMG 30022G32KT
  • 140530Z AUTO 28017G32KT 250V320 9999 -RA FEW021/// SCT029/// BKN042/// ///TCU 07/05 Q1005

TAF TAF LFRL
Valide du 14 à 06h jusqu'au 14 à 15h UTC


140500Z 1406/1415 30022G32KT 9999 BKN030 BKN040
TEMPO 1406/1415 4000 SHRA BKN020TCU
PROB40 1409/1415 3000 TSRAGS BKN020CB
Pas de NOTAMs connus pour ce terrain.
3 SIGMETs publiés pour la FIR Brest (LFRR) :
 
Annulation du SIGMET 2 
LFRR SIGMET 5 VALID 140610/140900 LFPW
LFRR BREST FIR/UIR CNL SIGMET 2 140700/140900=
Turbulence forte
LFRR SIGMET 3 VALID 140600/141000 LFPW
LFRR BREST FIR/UIR SEV TURB OBS AT 0600Z WI N4715 W00800 - N4900 W00800 - N5000 W00200 - N5000 W00015 - N4900 W00015 - N4830 W00400 - N4700 W00200 - N4715 W00800 SFC/FL060 STNR NC=
SIGMET 2  ANNULÉ :
Turbulence forte
LFRR SIGMET 2 VALID 140700/140900 LFPW
LFRR BREST FIR/UIR SEV TURB FCST WI N4730 W00800 - N4900 W00800 - N5000 W00200 - N4915 W00130 - N4830 W00445 - N4730 W00445 - N4730 W00800 SFC/FL050 STNR NC=



MET'MAP, la Météo Aéronautique d'un coup d'oeil ! - Copyright ORBIFLY Décembre 2007 - Disclaimer

ORBIFLY MET'MAP TEAM :

Programmation & Développement : Alexandra Zaïnal
Conception & Développement : Baudouin d'Aumeries
Co-Programmation & Développement : Marc-Olivier Méhu
Soutien technique & logistique : Manuel Goepfert

Contact : metmap@orbifly.com




SOURCES & CREDITS :

   NOAA